sensor_id;sensor_type;location;lat;lon;timestamp;pressure;altitude;pressure_sealevel;temperature;humidity
75972;BME280;64651;47.540;19.088;2023-05-29T00:00:17;100376.72;;;14.02;70.17
75972;BME280;64651;47.540;19.088;2023-05-29T00:05:19;100389.50;;;13.98;70.68
75972;BME280;64651;47.540;19.088;2023-05-29T00:10:22;100393.56;;;14.19;69.23
75972;BME280;64651;47.540;19.088;2023-05-29T00:15:24;100374.41;;;14.23;67.31
75972;BME280;64651;47.540;19.088;2023-05-29T00:20:26;100383.84;;;14.36;67.08
75972;BME280;64651;47.540;19.088;2023-05-29T00:25:29;100384.25;;;14.29;66.68
75972;BME280;64651;47.540;19.088;2023-05-29T00:30:31;100384.31;;;14.10;66.81
75972;BME280;64651;47.540;19.088;2023-05-29T00:35:34;100400.78;;;14.02;67.56
75972;BME280;64651;47.540;19.088;2023-05-29T00:40:36;100386.53;;;13.95;67.80
75972;BME280;64651;47.540;19.088;2023-05-29T00:45:38;100404.72;;;14.14;67.10
75972;BME280;64651;47.540;19.088;2023-05-29T00:50:40;100394.00;;;14.27;68.01
75972;BME280;64651;47.540;19.088;2023-05-29T00:55:44;100376.19;;;14.00;68.56
75972;BME280;64651;47.540;19.088;2023-05-29T01:00:46;100390.03;;;14.00;69.24
75972;BME280;64651;47.540;19.088;2023-05-29T01:05:49;100381.62;;;14.05;69.23
75972;BME280;64651;47.540;19.088;2023-05-29T01:10:56;100387.81;;;13.84;69.96
75972;BME280;64651;47.540;19.088;2023-05-29T01:16:35;100386.19;;;13.64;70.86
75972;BME280;64651;47.540;19.088;2023-05-29T01:26:52;100384.41;;;13.35;71.84
75972;BME280;64651;47.540;19.088;2023-05-29T01:31:56;100369.25;;;13.52;70.28
75972;BME280;64651;47.540;19.088;2023-05-29T01:37:00;100368.41;;;13.51;70.50
75972;BME280;64651;47.540;19.088;2023-05-29T01:42:02;100377.91;;;13.64;70.10
75972;BME280;64651;47.540;19.088;2023-05-29T01:47:05;100370.44;;;13.46;70.77
75972;BME280;64651;47.540;19.088;2023-05-29T01:52:08;100376.69;;;13.32;71.49
75972;BME280;64651;47.540;19.088;2023-05-29T01:57:11;100366.56;;;13.28;72.04
75972;BME280;64651;47.540;19.088;2023-05-29T02:02:14;100356.25;;;13.15;72.78
75972;BME280;64651;47.540;19.088;2023-05-29T02:07:17;100375.28;;;13.16;73.31
75972;BME280;64651;47.540;19.088;2023-05-29T02:12:19;100350.00;;;13.04;73.69
75972;BME280;64651;47.540;19.088;2023-05-29T02:17:22;100346.84;;;13.16;73.30
75972;BME280;64651;47.540;19.088;2023-05-29T02:22:24;100363.63;;;13.19;73.26
75972;BME280;64651;47.540;19.088;2023-05-29T02:27:27;100359.22;;;13.18;73.23
75972;BME280;64651;47.540;19.088;2023-05-29T02:32:29;100356.03;;;13.06;73.72
75972;BME280;64651;47.540;19.088;2023-05-29T02:37:31;100370.59;;;13.12;73.52
75972;BME280;64651;47.540;19.088;2023-05-29T02:42:33;100359.13;;;13.05;74.68
75972;BME280;64651;47.540;19.088;2023-05-29T02:47:36;100350.13;;;12.94;75.13
75972;BME280;64651;47.540;19.088;2023-05-29T02:52:39;100347.69;;;13.11;75.03
75972;BME280;64651;47.540;19.088;2023-05-29T02:57:41;100348.25;;;12.89;76.56
75972;BME280;64651;47.540;19.088;2023-05-29T03:02:44;100346.50;;;12.75;77.50
75972;BME280;64651;47.540;19.088;2023-05-29T03:07:46;100350.81;;;12.86;78.68
75972;BME280;64651;47.540;19.088;2023-05-29T03:12:49;100349.63;;;12.92;78.97
75972;BME280;64651;47.540;19.088;2023-05-29T03:17:51;100350.09;;;12.99;78.98
75972;BME280;64651;47.540;19.088;2023-05-29T03:22:53;100353.81;;;13.08;78.83
75972;BME280;64651;47.540;19.088;2023-05-29T03:27:56;100330.75;;;12.99;78.62
75972;BME280;64651;47.540;19.088;2023-05-29T03:32:58;100337.88;;;13.00;78.12
75972;BME280;64651;47.540;19.088;2023-05-29T03:38:05;100356.97;;;13.20;77.04
75972;BME280;64651;47.540;19.088;2023-05-29T03:43:07;100363.78;;;13.47;75.60
75972;BME280;64651;47.540;19.088;2023-05-29T03:48:09;100355.13;;;13.53;75.27
75972;BME280;64651;47.540;19.088;2023-05-29T03:53:12;100383.25;;;13.74;74.43
75972;BME280;64651;47.540;19.088;2023-05-29T03:58:14;100381.25;;;13.61;74.87
75972;BME280;64651;47.540;19.088;2023-05-29T04:03:17;100373.13;;;13.51;75.15
75972;BME280;64651;47.540;19.088;2023-05-29T04:08:20;100379.84;;;13.63;75.62
75972;BME280;64651;47.540;19.088;2023-05-29T04:13:22;100366.91;;;13.77;73.84
75972;BME280;64651;47.540;19.088;2023-05-29T04:18:24;100377.25;;;13.86;73.48
75972;BME280;64651;47.540;19.088;2023-05-29T04:23:27;100386.63;;;14.03;73.12
75972;BME280;64651;47.540;19.088;2023-05-29T04:28:29;100373.53;;;14.09;72.72
75972;BME280;64651;47.540;19.088;2023-05-29T04:33:32;100400.94;;;14.24;72.72
75972;BME280;64651;47.540;19.088;2023-05-29T04:38:35;100386.41;;;14.32;72.02
75972;BME280;64651;47.540;19.088;2023-05-29T04:43:39;100377.84;;;14.47;71.22
75972;BME280;64651;47.540;19.088;2023-05-29T04:48:42;100388.84;;;14.66;71.03
75972;BME280;64651;47.540;19.088;2023-05-29T04:53:45;100384.72;;;14.77;69.93
75972;BME280;64651;47.540;19.088;2023-05-29T04:58:48;100395.81;;;15.05;69.33
75972;BME280;64651;47.540;19.088;2023-05-29T05:03:51;100397.81;;;15.26;68.61
75972;BME280;64651;47.540;19.088;2023-05-29T05:08:57;100404.47;;;15.39;67.58
75972;BME280;64651;47.540;19.088;2023-05-29T05:14:00;100411.38;;;15.55;67.23
75972;BME280;64651;47.540;19.088;2023-05-29T05:19:02;100396.75;;;15.63;66.07
75972;BME280;64651;47.540;19.088;2023-05-29T05:24:05;100407.41;;;15.92;65.09
75972;BME280;64651;47.540;19.088;2023-05-29T05:29:07;100409.66;;;16.04;65.69
75972;BME280;64651;47.540;19.088;2023-05-29T05:34:09;100410.25;;;16.23;65.26
75972;BME280;64651;47.540;19.088;2023-05-29T05:39:12;100399.06;;;16.37;65.03
75972;BME280;64651;47.540;19.088;2023-05-29T05:44:14;100406.59;;;16.67;63.47
75972;BME280;64651;47.540;19.088;2023-05-29T05:49:16;100408.97;;;16.91;63.21
75972;BME280;64651;47.540;19.088;2023-05-29T05:54:19;100411.66;;;17.04;62.90
75972;BME280;64651;47.540;19.088;2023-05-29T05:59:23;100414.16;;;17.23;62.20
75972;BME280;64651;47.540;19.088;2023-05-29T06:04:25;100403.22;;;17.35;62.02
75972;BME280;64651;47.540;19.088;2023-05-29T06:09:28;100405.72;;;17.54;60.66
75972;BME280;64651;47.540;19.088;2023-05-29T06:14:31;100415.88;;;17.93;60.12
75972;BME280;64651;47.540;19.088;2023-05-29T06:19:33;100407.69;;;18.05;59.31
75972;BME280;64651;47.540;19.088;2023-05-29T06:24:35;100429.94;;;18.40;58.50
75972;BME280;64651;47.540;19.088;2023-05-29T06:29:37;100435.47;;;18.66;56.49
75972;BME280;64651;47.540;19.088;2023-05-29T06:34:39;100424.31;;;19.03;55.67
75972;BME280;64651;47.540;19.088;2023-05-29T06:39:45;100430.78;;;19.25;54.98
75972;BME280;64651;47.540;19.088;2023-05-29T06:44:48;100428.75;;;19.63;54.28
75972;BME280;64651;47.540;19.088;2023-05-29T06:49:50;100432.81;;;20.07;52.86
75972;BME280;64651;47.540;19.088;2023-05-29T06:54:52;100426.28;;;20.24;52.02
75972;BME280;64651;47.540;19.088;2023-05-29T06:59:56;100418.12;;;20.31;51.46
75972;BME280;64651;47.540;19.088;2023-05-29T07:04:58;100442.16;;;20.65;51.51
75972;BME280;64651;47.540;19.088;2023-05-29T07:10:00;100436.81;;;20.84;50.38
75972;BME280;64651;47.540;19.088;2023-05-29T07:15:03;100418.75;;;21.06;50.09
75972;BME280;64651;47.540;19.088;2023-05-29T07:20:06;100436.59;;;21.62;49.34
75972;BME280;64651;47.540;19.088;2023-05-29T07:25:09;100414.91;;;22.11;47.64
75972;BME280;64651;47.540;19.088;2023-05-29T07:30:12;100435.31;;;22.83;46.63
75972;BME280;64651;47.540;19.088;2023-05-29T07:35:14;100441.84;;;23.19;45.76
75972;BME280;64651;47.540;19.088;2023-05-29T07:40:17;100433.34;;;23.47;45.01
75972;BME280;64651;47.540;19.088;2023-05-29T07:45:19;100453.94;;;23.70;44.96
75972;BME280;64651;47.540;19.088;2023-05-29T07:50:21;100458.84;;;23.57;44.66
75972;BME280;64651;47.540;19.088;2023-05-29T07:55:24;100472.00;;;24.23;43.68
75972;BME280;64651;47.540;19.088;2023-05-29T08:00:26;100476.97;;;24.91;42.44
75972;BME280;64651;47.540;19.088;2023-05-29T08:05:30;100480.81;;;24.83;42.34
75972;BME280;64651;47.540;19.088;2023-05-29T08:10:36;100469.56;;;26.34;39.11
75972;BME280;64651;47.540;19.088;2023-05-29T08:15:38;100458.31;;;27.11;36.89
75972;BME280;64651;47.540;19.088;2023-05-29T08:20:41;100455.47;;;26.34;38.40
75972;BME280;64651;47.540;19.088;2023-05-29T08:25:45;100452.00;;;27.83;36.35
75972;BME280;64651;47.540;19.088;2023-05-29T08:30:47;100444.09;;;27.48;36.53
75972;BME280;64651;47.540;19.088;2023-05-29T08:35:49;100447.16;;;27.29;36.16
75972;BME280;64651;47.540;19.088;2023-05-29T08:40:52;100446.41;;;27.94;35.88
75972;BME280;64651;47.540;19.088;2023-05-29T08:45:59;100434.22;;;28.73;34.11
75972;BME280;64651;47.540;19.088;2023-05-29T08:51:02;100429.75;;;30.79;30.89
75972;BME280;64651;47.540;19.088;2023-05-29T08:56:05;100424.00;;;31.82;29.63
75972;BME280;64651;47.540;19.088;2023-05-29T09:01:07;100422.19;;;31.99;27.99
75972;BME280;64651;47.540;19.088;2023-05-29T09:06:10;100418.19;;;33.81;26.14
75972;BME280;64651;47.540;19.088;2023-05-29T09:11:12;100424.63;;;34.05;26.21
75972;BME280;64651;47.540;19.088;2023-05-29T09:16:17;100422.56;;;33.86;26.64
75972;BME280;64651;47.540;19.088;2023-05-29T09:21:27;100419.72;;;36.07;23.54
75972;BME280;64651;47.540;19.088;2023-05-29T09:26:31;100414.25;;;33.95;25.28
75972;BME280;64651;47.540;19.088;2023-05-29T09:31:38;100408.47;;;32.82;26.75
75972;BME280;64651;47.540;19.088;2023-05-29T09:36:53;100410.41;;;30.56;30.29
75972;BME280;64651;47.540;19.088;2023-05-29T09:41:55;100413.03;;;33.02;27.08
75972;BME280;64651;47.540;19.088;2023-05-29T09:46:59;100426.06;;;30.86;29.78
75972;BME280;64651;47.540;19.088;2023-05-29T09:52:01;100427.31;;;28.59;33.58
75972;BME280;64651;47.540;19.088;2023-05-29T09:57:05;100428.38;;;28.19;34.02
75972;BME280;64651;47.540;19.088;2023-05-29T10:02:08;100421.75;;;27.87;35.96
75972;BME280;64651;47.540;19.088;2023-05-29T10:07:27;100414.59;;;28.11;35.64
75972;BME280;64651;47.540;19.088;2023-05-29T10:12:38;100436.91;;;27.54;36.31
75972;BME280;64651;47.540;19.088;2023-05-29T10:17:57;100443.38;;;27.58;36.18
75972;BME280;64651;47.540;19.088;2023-05-29T10:23:00;100438.16;;;27.13;37.17
75972;BME280;64651;47.540;19.088;2023-05-29T10:28:05;100443.09;;;26.82;37.98
75972;BME280;64651;47.540;19.088;2023-05-29T10:33:20;100450.09;;;25.65;39.89
75972;BME280;64651;47.540;19.088;2023-05-29T10:38:25;100442.56;;;25.24;41.93
75972;BME280;64651;47.540;19.088;2023-05-29T10:43:32;100437.41;;;26.42;39.97
75972;BME280;64651;47.540;19.088;2023-05-29T10:48:38;100451.06;;;25.27;42.33
75972;BME280;64651;47.540;19.088;2023-05-29T10:53:42;100433.94;;;25.39;42.29
75972;BME280;64651;47.540;19.088;2023-05-29T10:58:52;100440.69;;;25.58;42.22
75972;BME280;64651;47.540;19.088;2023-05-29T11:09:37;100436.22;;;25.30;41.82
75972;BME280;64651;47.540;19.088;2023-05-29T11:15:06;100433.16;;;25.92;40.90
75972;BME280;64651;47.540;19.088;2023-05-29T11:25:37;100428.06;;;27.12;38.77
75972;BME280;64651;47.540;19.088;2023-05-29T11:30:47;100424.06;;;26.76;39.65
75972;BME280;64651;47.540;19.088;2023-05-29T11:35:55;100428.19;;;26.15;40.05
75972;BME280;64651;47.540;19.088;2023-05-29T11:41:01;100426.03;;;26.05;39.57
75972;BME280;64651;47.540;19.088;2023-05-29T11:46:15;100423.09;;;25.94;40.26
75972;BME280;64651;47.540;19.088;2023-05-29T11:51:18;100415.97;;;26.74;39.42
75972;BME280;64651;47.540;19.088;2023-05-29T11:56:20;100399.06;;;26.78;39.66
75972;BME280;64651;47.540;19.088;2023-05-29T12:01:24;100393.00;;;26.76;39.32
75972;BME280;64651;47.540;19.088;2023-05-29T12:06:33;100376.56;;;25.77;40.77
75972;BME280;64651;47.540;19.088;2023-05-29T12:11:45;100379.00;;;26.12;40.84
75972;BME280;64651;47.540;19.088;2023-05-29T12:16:47;100368.25;;;26.58;39.49
75972;BME280;64651;47.540;19.088;2023-05-29T12:21:49;100357.28;;;26.53;38.26
75972;BME280;64651;47.540;19.088;2023-05-29T12:26:52;100350.34;;;26.44;38.75
75972;BME280;64651;47.540;19.088;2023-05-29T12:31:58;100356.78;;;27.32;37.47
75972;BME280;64651;47.540;19.088;2023-05-29T12:37:09;100352.16;;;27.68;36.32
75972;BME280;64651;47.540;19.088;2023-05-29T12:42:16;100336.59;;;30.53;32.57
75972;BME280;64651;47.540;19.088;2023-05-29T12:47:27;100330.19;;;30.35;31.46
75972;BME280;64651;47.540;19.088;2023-05-29T12:52:30;100346.78;;;32.41;27.94
75972;BME280;64651;47.540;19.088;2023-05-29T12:57:32;100331.78;;;30.39;29.61
75972;BME280;64651;47.540;19.088;2023-05-29T13:02:34;100325.16;;;31.87;27.72
75972;BME280;64651;47.540;19.088;2023-05-29T13:07:37;100325.81;;;32.28;27.25
75972;BME280;64651;47.540;19.088;2023-05-29T13:12:40;100324.75;;;31.84;28.10
75972;BME280;64651;47.540;19.088;2023-05-29T13:17:43;100327.81;;;32.01;27.43
75972;BME280;64651;47.540;19.088;2023-05-29T13:22:46;100320.44;;;32.34;27.48
75972;BME280;64651;47.540;19.088;2023-05-29T13:27:49;100323.09;;;32.98;26.99
75972;BME280;64651;47.540;19.088;2023-05-29T13:32:52;100310.12;;;34.35;24.73
75972;BME280;64651;47.540;19.088;2023-05-29T13:37:55;100297.22;;;36.36;22.54
75972;BME280;64651;47.540;19.088;2023-05-29T13:42:57;100293.81;;;36.41;22.05
75972;BME280;64651;47.540;19.088;2023-05-29T13:48:00;100291.22;;;34.05;24.72
75972;BME280;64651;47.540;19.088;2023-05-29T13:53:02;100300.63;;;33.66;25.35
75972;BME280;64651;47.540;19.088;2023-05-29T13:58:04;100291.25;;;30.87;28.47
75972;BME280;64651;47.540;19.088;2023-05-29T14:03:07;100291.22;;;30.90;28.82
75972;BME280;64651;47.540;19.088;2023-05-29T14:08:10;100288.09;;;31.56;28.62
75972;BME280;64651;47.540;19.088;2023-05-29T14:13:12;100292.50;;;31.27;28.80
75972;BME280;64651;47.540;19.088;2023-05-29T14:18:15;100283.69;;;33.13;26.34
75972;BME280;64651;47.540;19.088;2023-05-29T14:23:18;100272.94;;;35.61;22.95
75972;BME280;64651;47.540;19.088;2023-05-29T14:28:20;100277.66;;;34.45;23.72
75972;BME280;64651;47.540;19.088;2023-05-29T14:33:22;100277.00;;;35.03;23.43
75972;BME280;64651;47.540;19.088;2023-05-29T14:38:26;100278.09;;;35.66;23.54
75972;BME280;64651;47.540;19.088;2023-05-29T14:43:29;100293.50;;;32.88;26.73
75972;BME280;64651;47.540;19.088;2023-05-29T14:48:31;100291.03;;;31.49;29.63
75972;BME280;64651;47.540;19.088;2023-05-29T14:53:35;100285.91;;;30.48;31.88
75972;BME280;64651;47.540;19.088;2023-05-29T14:58:37;100300.56;;;29.63;35.90
75972;BME280;64651;47.540;19.088;2023-05-29T15:03:39;100296.34;;;31.10;37.13
75972;BME280;64651;47.540;19.088;2023-05-29T15:08:41;100300.31;;;28.90;42.74
75972;BME280;64651;47.540;19.088;2023-05-29T15:13:45;100301.72;;;27.81;46.49
75972;BME280;64651;47.540;19.088;2023-05-29T15:18:48;100288.94;;;29.11;46.19
75972;BME280;64651;47.540;19.088;2023-05-29T15:23:50;100278.59;;;27.54;44.70
75972;BME280;64651;47.540;19.088;2023-05-29T15:28:52;100276.16;;;26.40;41.03
75972;BME280;64651;47.540;19.088;2023-05-29T15:33:55;100280.41;;;29.18;40.99
75972;BME280;64651;47.540;19.088;2023-05-29T15:38:57;100267.72;;;30.86;39.13
75972;BME280;64651;47.540;19.088;2023-05-29T15:43:59;100273.72;;;29.78;31.80
75972;BME280;64651;47.540;19.088;2023-05-29T15:49:02;100266.63;;;29.31;30.61
75972;BME280;64651;47.540;19.088;2023-05-29T15:54:04;100274.75;;;29.15;30.77
75972;BME280;64651;47.540;19.088;2023-05-29T15:59:07;100277.56;;;30.19;30.18
75972;BME280;64651;47.540;19.088;2023-05-29T16:04:09;100274.00;;;30.67;29.22
75972;BME280;64651;47.540;19.088;2023-05-29T16:09:12;100260.00;;;30.87;26.75
75972;BME280;64651;47.540;19.088;2023-05-29T16:14:15;100265.84;;;30.73;28.12
75972;BME280;64651;47.540;19.088;2023-05-29T16:19:17;100258.94;;;31.15;30.19
75972;BME280;64651;47.540;19.088;2023-05-29T16:24:20;100265.62;;;30.49;28.69
75972;BME280;64651;47.540;19.088;2023-05-29T16:29:23;100256.44;;;30.28;29.32
75972;BME280;64651;47.540;19.088;2023-05-29T16:34:25;100262.00;;;29.76;30.93
75972;BME280;64651;47.540;19.088;2023-05-29T16:39:27;100263.03;;;29.09;31.44
75972;BME280;64651;47.540;19.088;2023-05-29T16:44:33;100268.72;;;28.63;32.67
75972;BME280;64651;47.540;19.088;2023-05-29T16:49:35;100256.97;;;28.15;34.36
75972;BME280;64651;47.540;19.088;2023-05-29T16:54:37;100278.88;;;27.35;34.97
75972;BME280;64651;47.540;19.088;2023-05-29T16:59:43;100266.66;;;26.62;36.85
75972;BME280;64651;47.540;19.088;2023-05-29T17:04:46;100271.47;;;26.58;39.72
75972;BME280;64651;47.540;19.088;2023-05-29T17:09:48;100280.13;;;26.35;40.09
75972;BME280;64651;47.540;19.088;2023-05-29T17:14:51;100270.47;;;25.99;40.60
75972;BME280;64651;47.540;19.088;2023-05-29T17:19:53;100278.75;;;25.81;42.65
75972;BME280;64651;47.540;19.088;2023-05-29T17:24:56;100275.28;;;25.32;42.88
75972;BME280;64651;47.540;19.088;2023-05-29T17:30:00;100282.06;;;25.01;44.13
75972;BME280;64651;47.540;19.088;2023-05-29T17:35:04;100280.97;;;24.56;42.98
75972;BME280;64651;47.540;19.088;2023-05-29T17:40:07;100288.47;;;24.26;42.91
75972;BME280;64651;47.540;19.088;2023-05-29T17:45:09;100294.50;;;23.86;44.39
75972;BME280;64651;47.540;19.088;2023-05-29T17:50:12;100297.34;;;23.48;44.79
75972;BME280;64651;47.540;19.088;2023-05-29T17:55:15;100299.84;;;23.18;45.45
75972;BME280;64651;47.540;19.088;2023-05-29T18:00:17;100299.00;;;22.82;48.39
75972;BME280;64651;47.540;19.088;2023-05-29T18:05:20;100311.31;;;22.62;49.12
75972;BME280;64651;47.540;19.088;2023-05-29T18:10:22;100323.44;;;22.35;50.51
75972;BME280;64651;47.540;19.088;2023-05-29T18:15:25;100320.22;;;22.05;51.63
75972;BME280;64651;47.540;19.088;2023-05-29T18:20:27;100314.16;;;21.75;52.27
75972;BME280;64651;47.540;19.088;2023-05-29T18:25:31;100306.91;;;21.46;53.16
75972;BME280;64651;47.540;19.088;2023-05-29T18:30:35;100314.19;;;21.23;54.49
75972;BME280;64651;47.540;19.088;2023-05-29T18:35:38;100333.66;;;21.07;56.08
75972;BME280;64651;47.540;19.088;2023-05-29T18:40:40;100334.59;;;20.87;57.71
75972;BME280;64651;47.540;19.088;2023-05-29T18:45:44;100337.62;;;20.70;58.00
75972;BME280;64651;47.540;19.088;2023-05-29T18:50:46;100330.88;;;20.58;58.97
75972;BME280;64651;47.540;19.088;2023-05-29T18:55:48;100339.34;;;20.50;60.23
75972;BME280;64651;47.540;19.088;2023-05-29T19:00:51;100345.69;;;20.26;61.27
75972;BME280;64651;47.540;19.088;2023-05-29T19:05:53;100347.62;;;20.13;62.31
75972;BME280;64651;47.540;19.088;2023-05-29T19:10:55;100338.16;;;19.94;63.63
75972;BME280;64651;47.540;19.088;2023-05-29T19:15:58;100350.34;;;19.89;64.50
75972;BME280;64651;47.540;19.088;2023-05-29T19:21:00;100352.47;;;19.71;65.60
75972;BME280;64651;47.540;19.088;2023-05-29T19:26:05;100346.09;;;19.50;66.11
75972;BME280;64651;47.540;19.088;2023-05-29T19:31:07;100354.38;;;19.38;66.76
75972;BME280;64651;47.540;19.088;2023-05-29T19:36:09;100369.94;;;19.18;67.66
75972;BME280;64651;47.540;19.088;2023-05-29T19:41:12;100353.00;;;18.94;68.50
75972;BME280;64651;47.540;19.088;2023-05-29T19:46:14;100380.41;;;18.92;69.41
75972;BME280;64651;47.540;19.088;2023-05-29T19:51:16;100368.97;;;19.14;69.95
75972;BME280;64651;47.540;19.088;2023-05-29T19:56:19;100378.44;;;19.22;70.97
75972;BME280;64651;47.540;19.088;2023-05-29T20:01:22;100393.78;;;19.36;71.86
75972;BME280;64651;47.540;19.088;2023-05-29T20:06:28;100394.59;;;19.37;72.11
75972;BME280;64651;47.540;19.088;2023-05-29T20:11:34;100396.16;;;19.26;72.98
75972;BME280;64651;47.540;19.088;2023-05-29T20:16:36;100381.66;;;19.03;74.00
75972;BME280;64651;47.540;19.088;2023-05-29T20:21:39;100390.50;;;18.76;74.97
75972;BME280;64651;47.540;19.088;2023-05-29T20:26:41;100391.22;;;18.55;75.81
75972;BME280;64651;47.540;19.088;2023-05-29T20:31:43;100387.47;;;18.43;76.89
75972;BME280;64651;47.540;19.088;2023-05-29T20:36:46;100387.31;;;18.31;77.56
75972;BME280;64651;47.540;19.088;2023-05-29T20:41:48;100392.63;;;18.15;78.14
75972;BME280;64651;47.540;19.088;2023-05-29T20:46:51;100389.19;;;18.09;78.65
75972;BME280;64651;47.540;19.088;2023-05-29T20:51:53;100380.84;;;17.92;79.33
75972;BME280;64651;47.540;19.088;2023-05-29T20:56:56;100385.75;;;17.95;78.97
75972;BME280;64651;47.540;19.088;2023-05-29T21:01:58;100383.97;;;17.82;79.70
75972;BME280;64651;47.540;19.088;2023-05-29T21:07:01;100376.59;;;17.60;80.74
75972;BME280;64651;47.540;19.088;2023-05-29T21:12:04;100381.16;;;17.48;81.54
75972;BME280;64651;47.540;19.088;2023-05-29T21:17:06;100373.13;;;17.37;81.89
75972;BME280;64651;47.540;19.088;2023-05-29T21:22:08;100377.22;;;17.31;81.61
75972;BME280;64651;47.540;19.088;2023-05-29T21:27:11;100375.41;;;17.35;81.74
75972;BME280;64651;47.540;19.088;2023-05-29T21:32:14;100381.47;;;17.37;81.60
75972;BME280;64651;47.540;19.088;2023-05-29T21:37:17;100372.47;;;17.32;81.98
75972;BME280;64651;47.540;19.088;2023-05-29T21:42:19;100359.19;;;17.20;82.69
75972;BME280;64651;47.540;19.088;2023-05-29T21:47:22;100361.09;;;17.02;83.55
75972;BME280;64651;47.540;19.088;2023-05-29T21:52:24;100355.03;;;16.92;84.25
75972;BME280;64651;47.540;19.088;2023-05-29T21:57:27;100361.22;;;16.80;85.08
75972;BME280;64651;47.540;19.088;2023-05-29T22:02:29;100376.09;;;16.76;85.64
75972;BME280;64651;47.540;19.088;2023-05-29T22:07:32;100376.84;;;16.68;86.03
75972;BME280;64651;47.540;19.088;2023-05-29T22:12:35;100375.78;;;16.55;86.73
75972;BME280;64651;47.540;19.088;2023-05-29T22:17:39;100356.78;;;16.40;87.31
75972;BME280;64651;47.540;19.088;2023-05-29T22:22:43;100371.97;;;16.42;87.80
75972;BME280;64651;47.540;19.088;2023-05-29T22:27:46;100358.66;;;16.22;88.15
75972;BME280;64651;47.540;19.088;2023-05-29T22:32:48;100369.75;;;16.22;87.84
75972;BME280;64651;47.540;19.088;2023-05-29T22:37:50;100377.56;;;16.20;88.06
75972;BME280;64651;47.540;19.088;2023-05-29T22:42:53;100386.41;;;16.22;86.92
75972;BME280;64651;47.540;19.088;2023-05-29T22:47:57;100387.53;;;16.21;88.14
75972;BME280;64651;47.540;19.088;2023-05-29T22:53:02;100386.63;;;16.03;89.40
75972;BME280;64651;47.540;19.088;2023-05-29T22:58:04;100380.69;;;15.96;89.89
75972;BME280;64651;47.540;19.088;2023-05-29T23:03:07;100376.84;;;15.83;90.33
75972;BME280;64651;47.540;19.088;2023-05-29T23:08:10;100370.91;;;15.76;90.46
75972;BME280;64651;47.540;19.088;2023-05-29T23:13:13;100374.31;;;15.73;90.37
75972;BME280;64651;47.540;19.088;2023-05-29T23:18:15;100381.00;;;15.95;88.24
75972;BME280;64651;47.540;19.088;2023-05-29T23:23:18;100370.78;;;16.04;86.79
75972;BME280;64651;47.540;19.088;2023-05-29T23:28:20;100372.41;;;16.05;86.67
75972;BME280;64651;47.540;19.088;2023-05-29T23:33:23;100379.81;;;16.09;86.51
75972;BME280;64651;47.540;19.088;2023-05-29T23:38:26;100374.75;;;15.89;87.29
75972;BME280;64651;47.540;19.088;2023-05-29T23:43:28;100377.09;;;15.73;87.86
75972;BME280;64651;47.540;19.088;2023-05-29T23:48:30;100372.03;;;15.75;87.31
75972;BME280;64651;47.540;19.088;2023-05-29T23:53:32;100366.19;;;15.77;87.46
75972;BME280;64651;47.540;19.088;2023-05-29T23:58:35;100363.91;;;15.79;87.04
